Wind Star — C6CA9 — position and weather

sailwx.info

Track history (hours):
 
Tides and Currents Weather Stations Pressure Air Temp Water Temp Dewpoint Dewpoint Depression Visibility Wind Speed Wind Dir Waves Ship Positions

Wind Star

Operator: Holland America Line

Last reported at 2017-Apr-28 04:30 UTC. Time now 2017-Apr-29 11:36 UTC.
Position N 42°51' E 010°19'.

Length 134 m; draft 4.2 m.

Type: Passenger vessel. MMSI: 309163000.

Date/timePositionNaut miles runAvg speedWind from/ knotsBaromVisibWave heightAir tempDewpointWater temp
2017-Apr-28 04:30N 42°51' E 010°19'4 8.3
2017-Apr-28 03:58N 42°52' E 010°14'  
2017-Apr-24 23:48N 39°19' E 003°48'3 8.3
2017-Apr-24 23:27N 39°18' E 003°45'5 8.1
2017-Apr-24 22:53N 39°17' E 003°39'3 8.1
2017-Apr-24 22:30N 39°16' E 003°36'4 8.2
2017-Apr-24 21:58N 39°14' E 003°30'4 7.6
2017-Apr-24 21:31N 39°13' E 003°26'4 7.2
2017-Apr-24 21:00N 39°12' E 003°22'4 7.6
2017-Apr-24 20:30N 39°11' E 003°17'3 6.7
2017-Apr-24 20:00N 39°10' E 003°13'4 7.6
2017-Apr-24 19:30N 39°08' E 003°08'510.4
2017-Apr-24 19:00N 39°07' E 003°02'510.1
2017-Apr-24 18:30N 39°06' E 002°55'5 9.5
2017-Apr-24 18:00N 39°09' E 002°51'5 9.7
2017-Apr-24 17:30N 39°14' E 002°48'5 9.7
2017-Apr-24 17:00N 39°18' E 002°45'10 9.7
2017-Apr-24 15:59N 39°27' E 002°40'5 9.9
2017-Apr-24 15:30N 39°32' E 002°39'2 3.4
2017-Apr-24 15:00N 39°33' E 002°38'0 0.0
2017-Apr-24 14:30N 39°33' E 002°38'0 0.0
2017-Apr-24 13:30N 39°33' E 002°38'0 0.0
2017-Apr-24 13:00N 39°33' E 002°38'0 0.0
2017-Apr-24 12:30N 39°33' E 002°38'0 0.0
2017-Apr-24 12:00N 39°33' E 002°38'0 0.0
2017-Apr-24 11:30N 39°33' E 002°38'0 0.0
2017-Apr-24 11:00N 39°33' E 002°38'0 0.0
2017-Apr-24 10:30N 39°33' E 002°38'0 0.0
2017-Apr-24 10:00N 39°33' E 002°38'0 0.0
2017-Apr-24 09:30N 39°33' E 002°38'0 0.0
2017-Apr-24 08:57N 39°33' E 002°38'0 0.0
2017-Apr-24 08:30N 39°33' E 002°38'0 0.0
2017-Apr-24 08:00N 39°33' E 002°38'0 0.0
2017-Apr-24 07:30N 39°33' E 002°38'0 0.0
2017-Apr-24 07:00N 39°33' E 002°38'0 0.8
2017-Apr-24 06:30N 39°33' E 002°38'3 5.1
2017-Apr-24 06:00N 39°31' E 002°37'4 8.2
2017-Apr-24 05:30N 39°28' E 002°34'4 8.8
2017-Apr-24 05:00N 39°26' E 002°28'4 8.0
2017-Apr-24 04:30N 39°29' E 002°24'4 8.0
2017-Apr-24 04:00N 39°31' E 002°20'4 7.5
2017-Apr-24 03:24N 39°35' E 002°16'3 7.3
2017-Apr-24 03:00N 39°38' E 002°15'4 7.4
2017-Apr-24 02:25N 39°42' E 002°15'3 7.1
2017-Apr-24 02:00N 39°45' E 002°15'4 7.1
2017-Apr-24 01:30N 39°48' E 002°15'4 7.6
2017-Apr-24 01:00N 39°52' E 002°15'4 7.4
2017-Apr-24 00:30N 39°56' E 002°14'4 7.2
2017-Apr-24 00:00N 39°60' E 002°14'3 6.9
2017-Apr-23 23:30N 40°03' E 002°15'4 7.2
2017-Apr-23 23:00N 40°06' E 002°15'4 7.2
2017-Apr-23 22:30N 40°10' E 002°15'4 7.4
2017-Apr-23 22:00N 40°14' E 002°14'4 7.3
2017-Apr-23 21:30N 40°17' E 002°14'4 7.6
2017-Apr-23 21:00N 40°21' E 002°14'5 9.0
2017-Apr-23 20:30N 40°26' E 002°14'510.5
2017-Apr-23 20:00N 40°31' E 002°14'510.3
2017-Apr-23 19:30N 40°36' E 002°14'510.7
2017-Apr-23 19:00N 40°41' E 002°14'510.8
2017-Apr-23 18:30N 40°47' E 002°14'610.9
2017-Apr-23 18:00N 40°52' E 002°14'611.3
2017-Apr-23 17:30N 40°58' E 002°14'611.6
2017-Apr-23 17:00N 41°04' E 002°14'611.4
2017-Apr-23 16:30N 41°09' E 002°14'711.0
2017-Apr-23 15:52N 41°16' E 002°14'410.0
2017-Apr-23 15:29N 41°20' E 002°12'2 5.1
2017-Apr-23 15:00N 41°22' E 002°11'0 0.0
2017-Apr-23 13:08N 41°22' E 002°11'0 0.0
2017-Apr-23 12:38N 41°22' E 002°11'0 0.0
2017-Apr-23 07:44N 41°22' E 002°11'0 0.0
2017-Apr-23 07:26N 41°22' E 002°11'0 0.0
2017-Apr-23 06:44N 41°22' E 002°11'0 0.0
2017-Apr-23 06:23N 41°22' E 002°11'0 0.0
2017-Apr-23 05:59N 41°22' E 002°11'0 0.0
2017-Apr-23 05:29N 41°22' E 002°11'0 0.0
2017-Apr-23 04:53N 41°22' E 002°11'0 0.0
2017-Apr-23 04:30N 41°22' E 002°11'2 3.1
2017-Apr-23 04:00N 41°21' E 002°12'3 5.9
2017-Apr-23 03:29N 41°18' E 002°14'2 4.1
2017-Apr-23 03:00N 41°16' E 002°13'3 5.1
2017-Apr-23 02:29N 41°14' E 002°11'4 5.0
2017-Apr-23 01:38N 41°12' E 002°06'1 5.2
2017-Apr-23 01:28N 41°12' E 002°05'5 6.3
2017-Apr-23 00:38N 41°10' E 001°58'1 7.4
2017-Apr-23 00:28N 41°10' E 001°57'3 6.0
2017-Apr-22 23:59N 41°09' E 001°53'3 6.0
2017-Apr-22 23:31N 41°09' E 001°50'4 7.2
2017-Apr-22 22:55N 41°08' E 001°44'3 6.8
2017-Apr-22 22:30N 41°07' E 001°40'4 6.9
2017-Apr-22 21:56N 41°06' E 001°35'5 7.3
2017-Apr-22 21:17N 41°05' E 001°29'2 7.4
2017-Apr-22 21:00N 41°04' E 001°27'4 7.3
2017-Apr-22 20:30N 41°04' E 001°22'23 1.4
2017-Apr-22 04:00N 40°41' E 001°25'510.9
2017-Apr-22 03:30N 40°36' E 001°25'811.1
2017-Apr-22 02:49N 40°28' E 001°21'411.0
2017-Apr-22 02:28N 40°25' E 001°19'510.9
2017-Apr-22 02:00N 40°20' E 001°17'510.8
2017-Apr-22 01:30N 40°15' E 001°14'510.8
2017-Apr-22 01:00N 40°10' E 001°11'510.8
2017-Apr-22 00:30N 40°05' E 001°09'510.6
2017-Apr-21 23:59N 40°00' E 001°06'153 8.2
2017-Apr-21 05:14N 37°43' W 000°22'1 5.5
2017-Apr-21 05:00N 37°42' W 000°23'3 5.5
2017-Apr-21 04:30N 37°40' W 000°25'3 5.4
2017-Apr-21 03:54N 37°37' W 000°28'2 5.2
2017-Apr-21 03:30N 37°36' W 000°29'3 4.9
2017-Apr-21 02:54N 37°33' W 000°31'9 3.9
2017-Apr-21 00:34N 37°29' W 000°42'2 4.9
2017-Apr-21 00:04N 37°28' W 000°44'0 4.6
2017-Apr-20 23:58N 37°28' W 000°45'2 4.4
2017-Apr-20 23:30N 37°27' W 000°47'3 4.7
2017-Apr-20 22:52N 37°26' W 000°51'  
2017-Apr-18 17:56N 36°39' W 004°16'8 0.6
2017-Apr-18 05:07N 36°43' W 004°25'2 4.6
2017-Apr-18 04:41N 36°41' W 004°24'  
Track history (hours):
 
Tides and Currents Weather Stations Pressure Air Temp Water Temp Dewpoint Dewpoint Depression Visibility Wind Speed Wind Dir Waves Ship Positions

Wind Star

Operator: Holland America Line

Last reported at 2017-Apr-28 04:30 UTC. Time now 2017-Apr-29 11:36 UTC.
Position N 42°51' E 010°19'.

Length 134 m; draft 4.2 m.

Type: Passenger vessel. MMSI: 309163000.

Date/timePositionNaut miles runAvg speedWind from/ knotsBaromVisibWave heightAir tempDewpointWater temp
2017-Apr-28 04:30N 42°51' E 010°19'4 8.3
2017-Apr-28 03:58N 42°52' E 010°14'  
2017-Apr-24 23:48N 39°19' E 003°48'3 8.3
2017-Apr-24 23:27N 39°18' E 003°45'5 8.1
2017-Apr-24 22:53N 39°17' E 003°39'3 8.1
2017-Apr-24 22:30N 39°16' E 003°36'4 8.2
2017-Apr-24 21:58N 39°14' E 003°30'4 7.6
2017-Apr-24 21:31N 39°13' E 003°26'4 7.2
2017-Apr-24 21:00N 39°12' E 003°22'4 7.6
2017-Apr-24 20:30N 39°11' E 003°17'3 6.7
2017-Apr-24 20:00N 39°10' E 003°13'4 7.6
2017-Apr-24 19:30N 39°08' E 003°08'510.4
2017-Apr-24 19:00N 39°07' E 003°02'510.1
2017-Apr-24 18:30N 39°06' E 002°55'5 9.5
2017-Apr-24 18:00N 39°09' E 002°51'5 9.7
2017-Apr-24 17:30N 39°14' E 002°48'5 9.7
2017-Apr-24 17:00N 39°18' E 002°45'10 9.7
2017-Apr-24 15:59N 39°27' E 002°40'5 9.9
2017-Apr-24 15:30N 39°32' E 002°39'2 3.4
2017-Apr-24 15:00N 39°33' E 002°38'0 0.0
2017-Apr-24 14:30N 39°33' E 002°38'0 0.0
2017-Apr-24 13:30N 39°33' E 002°38'0 0.0
2017-Apr-24 13:00N 39°33' E 002°38'0 0.0
2017-Apr-24 12:30N 39°33' E 002°38'0 0.0
2017-Apr-24 12:00N 39°33' E 002°38'0 0.0
2017-Apr-24 11:30N 39°33' E 002°38'0 0.0
2017-Apr-24 11:00N 39°33' E 002°38'0 0.0
2017-Apr-24 10:30N 39°33' E 002°38'0 0.0
2017-Apr-24 10:00N 39°33' E 002°38'0 0.0
2017-Apr-24 09:30N 39°33' E 002°38'0 0.0
2017-Apr-24 08:57N 39°33' E 002°38'0 0.0
2017-Apr-24 08:30N 39°33' E 002°38'0 0.0
2017-Apr-24 08:00N 39°33' E 002°38'0 0.0
2017-Apr-24 07:30N 39°33' E 002°38'0 0.0
2017-Apr-24 07:00N 39°33' E 002°38'0 0.8
2017-Apr-24 06:30N 39°33' E 002°38'3 5.1
2017-Apr-24 06:00N 39°31' E 002°37'4 8.2
2017-Apr-24 05:30N 39°28' E 002°34'4 8.8
2017-Apr-24 05:00N 39°26' E 002°28'4 8.0
2017-Apr-24 04:30N 39°29' E 002°24'4 8.0
2017-Apr-24 04:00N 39°31' E 002°20'4 7.5
2017-Apr-24 03:24N 39°35' E 002°16'3 7.3
2017-Apr-24 03:00N 39°38' E 002°15'4 7.4
2017-Apr-24 02:25N 39°42' E 002°15'3 7.1
2017-Apr-24 02:00N 39°45' E 002°15'4 7.1
2017-Apr-24 01:30N 39°48' E 002°15'4 7.6
2017-Apr-24 01:00N 39°52' E 002°15'4 7.4
2017-Apr-24 00:30N 39°56' E 002°14'4 7.2
2017-Apr-24 00:00N 39°60' E 002°14'3 6.9
2017-Apr-23 23:30N 40°03' E 002°15'4 7.2
2017-Apr-23 23:00N 40°06' E 002°15'4 7.2
2017-Apr-23 22:30N 40°10' E 002°15'4 7.4
2017-Apr-23 22:00N 40°14' E 002°14'4 7.3
2017-Apr-23 21:30N 40°17' E 002°14'4 7.6
2017-Apr-23 21:00N 40°21' E 002°14'5 9.0
2017-Apr-23 20:30N 40°26' E 002°14'510.5
2017-Apr-23 20:00N 40°31' E 002°14'510.3
2017-Apr-23 19:30N 40°36' E 002°14'510.7
2017-Apr-23 19:00N 40°41' E 002°14'510.8
2017-Apr-23 18:30N 40°47' E 002°14'610.9
2017-Apr-23 18:00N 40°52' E 002°14'611.3
2017-Apr-23 17:30N 40°58' E 002°14'611.6
2017-Apr-23 17:00N 41°04' E 002°14'611.4
2017-Apr-23 16:30N 41°09' E 002°14'711.0
2017-Apr-23 15:52N 41°16' E 002°14'410.0
2017-Apr-23 15:29N 41°20' E 002°12'2 5.1
2017-Apr-23 15:00N 41°22' E 002°11'0 0.0
2017-Apr-23 13:08N 41°22' E 002°11'0 0.0
2017-Apr-23 12:38N 41°22' E 002°11'0 0.0
2017-Apr-23 07:44N 41°22' E 002°11'0 0.0
2017-Apr-23 07:26N 41°22' E 002°11'0 0.0
2017-Apr-23 06:44N 41°22' E 002°11'0 0.0
2017-Apr-23 06:23N 41°22' E 002°11'0 0.0
2017-Apr-23 05:59N 41°22' E 002°11'0 0.0
2017-Apr-23 05:29N 41°22' E 002°11'0 0.0
2017-Apr-23 04:53N 41°22' E 002°11'0 0.0
2017-Apr-23 04:30N 41°22' E 002°11'2 3.1
2017-Apr-23 04:00N 41°21' E 002°12'3 5.9
2017-Apr-23 03:29N 41°18' E 002°14'2 4.1
2017-Apr-23 03:00N 41°16' E 002°13'3 5.1
2017-Apr-23 02:29N 41°14' E 002°11'4 5.0
2017-Apr-23 01:38N 41°12' E 002°06'1 5.2
2017-Apr-23 01:28N 41°12' E 002°05'5 6.3
2017-Apr-23 00:38N 41°10' E 001°58'1 7.4
2017-Apr-23 00:28N 41°10' E 001°57'3 6.0
2017-Apr-22 23:59N 41°09' E 001°53'3 6.0
2017-Apr-22 23:31N 41°09' E 001°50'4 7.2
2017-Apr-22 22:55N 41°08' E 001°44'3 6.8
2017-Apr-22 22:30N 41°07' E 001°40'4 6.9
2017-Apr-22 21:56N 41°06' E 001°35'5 7.3
2017-Apr-22 21:17N 41°05' E 001°29'2 7.4
2017-Apr-22 21:00N 41°04' E 001°27'4 7.3
2017-Apr-22 20:30N 41°04' E 001°22'23 1.4
2017-Apr-22 04:00N 40°41' E 001°25'510.9
2017-Apr-22 03:30N 40°36' E 001°25'811.1
2017-Apr-22 02:49N 40°28' E 001°21'411.0
2017-Apr-22 02:28N 40°25' E 001°19'510.9
2017-Apr-22 02:00N 40°20' E 001°17'510.8
2017-Apr-22 01:30N 40°15' E 001°14'510.8
2017-Apr-22 01:00N 40°10' E 001°11'510.8
2017-Apr-22 00:30N 40°05' E 001°09'510.6
2017-Apr-21 23:59N 40°00' E 001°06'153 8.2
2017-Apr-21 05:14N 37°43' W 000°22'1 5.5
2017-Apr-21 05:00N 37°42' W 000°23'3 5.5
2017-Apr-21 04:30N 37°40' W 000°25'3 5.4
2017-Apr-21 03:54N 37°37' W 000°28'2 5.2
2017-Apr-21 03:30N 37°36' W 000°29'3 4.9
2017-Apr-21 02:54N 37°33' W 000°31'9 3.9
2017-Apr-21 00:34N 37°29' W 000°42'2 4.9
2017-Apr-21 00:04N 37°28' W 000°44'0 4.6
2017-Apr-20 23:58N 37°28' W 000°45'2 4.4
2017-Apr-20 23:30N 37°27' W 000°47'3 4.7
2017-Apr-20 22:52N 37°26' W 000°51'  
2017-Apr-18 17:56N 36°39' W 004°16'8 0.6
2017-Apr-18 05:07N 36°43' W 004°25'2 4.6
2017-Apr-18 04:41N 36°41' W 004°24'  

Dump ship's entire track history